Time;durP1;ratioP1;P1;durP2;ratioP2;P2;SDS_P1;SDS_P2;PMS_P1;PMS_P2;Temp;Humidity;BMP_temperature;BMP_pressure;BME280_temperature;BME280_humidity;BME280_pressure;Samples;Min_cycle;Max_cycle;Signal;HPM_P1;HPM_P2
2022/01/27 00:03:21;;;;;;;3.95;3.13;;;17.30;42.80;;;;;;4875871;29;20526;-54
2022/01/27 00:05:53;;;;;;;4.32;3.10;;;17.30;42.80;;;;;;4870551;29;20104;-53
2022/01/27 00:08:26;;;;;;;4.13;3.03;;;17.30;43.40;;;;;;4883238;29;20059;-55
2022/01/27 00:10:57;;;;;;;3.97;2.30;;;17.30;42.80;;;;;;4870478;29;20144;-52
2022/01/27 00:13:29;;;;;;;4.57;3.72;;;17.30;43.40;;;;;;4874883;29;20049;-50
2022/01/27 00:16:12;;;;;;;4.20;3.08;;;17.40;42.80;;;;;;4878974;29;20052;-53
2022/01/27 00:18:40;;;;;;;4.63;2.80;;;17.30;42.70;;;;;;4875665;29;20518;-50
2022/01/27 00:21:08;;;;;;;5.68;3.30;;;17.40;42.70;;;;;;4873170;29;20041;-47
2022/01/27 00:23:36;;;;;;;3.95;3.47;;;17.40;42.70;;;;;;4869016;29;20071;-51
2022/01/27 00:26:04;;;;;;;3.72;3.42;;;17.40;42.60;;;;;;4880168;29;20139;-54
2022/01/27 00:28:31;;;;;;;6.20;3.58;;;17.40;42.60;;;;;;4906797;29;20064;-54
2022/01/27 00:30:59;;;;;;;5.45;3.25;;;17.30;42.60;;;;;;4921138;29;20044;-51
2022/01/27 00:33:26;;;;;;;4.65;3.35;;;17.30;42.60;;;;;;4923305;29;20400;-50
2022/01/27 00:35:53;;;;;;;3.42;3.05;;;17.30;42.60;;;;;;4946903;28;20039;-49
2022/01/27 00:38:21;;;;;;;5.25;3.58;;;17.30;42.60;;;;;;4946445;28;20050;-53
2022/01/27 00:40:48;;;;;;;5.15;3.65;;;17.40;42.60;;;;;;4947218;28;20058;-48
2022/01/27 00:43:15;;;;;;;2.90;2.40;;;17.40;42.60;;;;;;4946614;29;20047;-52
2022/01/27 00:45:42;;;;;;;3.25;2.58;;;17.40;42.50;;;;;;4946554;28;20049;-51
2022/01/27 00:48:10;;;;;;;3.25;2.38;;;17.30;42.50;;;;;;4946861;28;20972;-49
2022/01/27 00:50:38;;;;;;;4.65;3.20;;;17.30;42.50;;;;;;4946620;28;20055;-50
2022/01/27 00:53:19;;;;;;;4.22;2.72;;;17.40;42.50;;;;;;4943079;28;20043;-55
2022/01/27 00:55:48;;;;;;;2.47;2.28;;;17.30;43.00;;;;;;4946955;28;20047;-50
2022/01/27 00:58:29;;;;;;;3.65;3.33;;;17.40;42.50;;;;;;4948248;28;20047;-50
2022/01/27 01:01:01;;;;;;;3.40;2.92;;;17.30;42.40;;;;;;4946477;28;20508;-52
2022/01/27 01:03:33;;;;;;;4.13;3.15;;;17.40;42.50;;;;;;4946807;28;20058;-54
2022/01/27 01:06:18;;;;;;;3.10;2.85;;;17.40;42.40;;;;;;4946224;28;20045;-54
2022/01/27 01:12:10;;;;;;;3.35;3.05;;;17.30;42.40;;;;;;4905648;29;20402;-53
2022/01/27 01:14:44;;;;;;;3.47;2.97;;;17.30;42.40;;;;;;4904712;29;20382;-53
2022/01/27 01:17:29;;;;;;;3.55;3.08;;;17.30;42.50;;;;;;4905283;29;20056;-53
2022/01/27 01:20:17;;;;;;;3.55;2.85;;;17.30;42.50;;;;;;4906621;29;20053;-56
2022/01/27 01:31:11;;;;;;;10.23;3.80;;;17.20;42.80;;;;;;4908953;29;20599;-55
2022/01/27 01:33:40;;;;;;;6.40;3.30;;;17.10;43.10;;;;;;4908853;29;20312;-57
2022/01/27 01:36:15;;;;;;;8.27;3.88;;;17.10;43.40;;;;;;4908693;29;20138;-59
2022/01/27 01:38:44;;;;;;;8.18;4.50;;;17.10;43.50;;;;;;4901118;29;20054;-57
2022/01/27 01:41:11;;;;;;;8.45;3.50;;;17.10;43.60;;;;;;4902739;29;20750;-57
2022/01/27 01:43:39;;;;;;;7.38;3.55;;;17.00;43.60;;;;;;4909275;29;20055;-55
2022/01/27 01:46:06;;;;;;;11.43;4.60;;;17.10;44.30;;;;;;4909699;29;20052;-57
2022/01/27 01:48:33;;;;;;;6.63;3.47;;;17.00;43.70;;;;;;4925642;29;20051;-58
2022/01/27 01:51:03;;;;;;;7.70;3.92;;;17.00;43.80;;;;;;4942354;28;20032;-51
2022/01/27 01:53:31;;;;;;;10.20;4.75;;;17.00;43.90;;;;;;4943709;28;20042;-56
2022/01/27 01:55:58;;;;;;;8.15;4.85;;;17.00;43.90;;;;;;4949774;28;20113;-56
2022/01/27 01:58:25;;;;;;;8.50;3.88;;;17.00;44.00;;;;;;4950655;29;20134;-56
2022/01/27 02:00:54;;;;;;;6.38;4.03;;;17.00;44.00;;;;;;4948673;28;20043;-55
2022/01/27 02:03:21;;;;;;;7.90;3.58;;;17.00;44.10;;;;;;4949303;28;20041;-57
2022/01/27 02:05:52;;;;;;;10.45;4.38;;;17.00;44.10;;;;;;4947110;28;20054;-57
2022/01/27 02:08:36;;;;;;;6.43;4.03;;;17.00;44.10;;;;;;4949030;28;20047;-57
2022/01/27 02:19:23;;;;;;;9.88;5.18;;;16.90;44.30;;;;;;4948912;29;20047;-57
2022/01/27 02:21:54;;;;;;;8.25;4.47;;;16.90;44.40;;;;;;4948648;28;20504;-57
2022/01/27 02:24:22;;;;;;;8.45;4.53;;;16.90;44.50;;;;;;4948823;28;20066;-55
2022/01/27 02:26:50;;;;;;;7.15;3.75;;;16.90;44.60;;;;;;4948418;28;20046;-57
2022/01/27 02:29:18;;;;;;;9.07;4.22;;;16.90;44.70;;;;;;4948783;28;20050;-54
2022/01/27 02:31:46;;;;;;;9.85;4.43;;;16.90;44.80;;;;;;4948685;28;20039;-58
2022/01/27 02:34:13;;;;;;;9.70;4.85;;;16.90;44.90;;;;;;4949644;28;20190;-58
2022/01/27 02:36:40;;;;;;;14.27;5.18;;;16.90;44.90;;;;;;4948498;28;20788;-58
2022/01/27 02:39:10;;;;;;;10.18;4.47;;;16.90;45.00;;;;;;4948595;28;20047;-58
2022/01/27 02:41:43;;;;;;;5.80;4.45;;;17.00;45.20;;;;;;4948264;28;20611;-58
2022/01/27 02:44:11;;;;;;;9.93;4.30;;;17.00;45.30;;;;;;4948420;28;20039;-57
2022/01/27 02:46:45;;;;;;;9.05;4.70;;;17.00;45.40;;;;;;4948178;28;20047;-58
2022/01/27 02:49:13;;;;;;;7.40;4.55;;;16.90;45.50;;;;;;4949201;28;20114;-57
2022/01/27 02:51:40;;;;;;;7.88;4.20;;;17.00;45.50;;;;;;4947995;28;20519;-51
2022/01/27 02:54:07;;;;;;;7.18;4.07;;;16.90;45.60;;;;;;4948025;28;20149;-56
2022/01/27 02:56:38;;;;;;;7.43;5.45;;;17.00;45.70;;;;;;4948314;28;20043;-58
2022/01/27 02:59:05;;;;;;;6.95;3.78;;;17.00;45.80;;;;;;4947845;28;20047;-52
2022/01/27 03:01:32;;;;;;;6.15;4.53;;;17.00;45.90;;;;;;4949801;29;20043;-50
2022/01/27 03:03:59;;;;;;;7.60;4.47;;;17.00;46.00;;;;;;4948376;28;20051;-54
2022/01/27 03:06:27;;;;;;;10.00;5.45;;;17.00;46.00;;;;;;4945534;28;20047;-56
2022/01/27 03:08:54;;;;;;;5.97;3.70;;;17.00;46.10;;;;;;4947535;28;20082;-56
2022/01/27 03:11:38;;;;;;;8.02;4.53;;;17.00;46.20;;;;;;4947949;28;20035;-57
2022/01/27 03:14:05;;;;;;;10.23;4.40;;;17.00;46.30;;;;;;4942601;28;20551;-58
2022/01/27 03:16:32;;;;;;;5.78;4.53;;;17.00;46.30;;;;;;4945750;28;20057;-58
2022/01/27 03:18:59;;;;;;;9.98;5.93;;;17.00;46.30;;;;;;4947452;28;20531;-59
2022/01/27 03:21:27;;;;;;;7.30;4.88;;;17.00;46.40;;;;;;4947590;28;20047;-56
2022/01/27 03:23:54;;;;;;;6.95;4.32;;;17.10;46.60;;;;;;4947583;28;20075;-59
2022/01/27 03:26:22;;;;;;;9.27;5.78;;;17.10;46.60;;;;;;4947262;28;20059;-56
2022/01/27 03:28:50;;;;;;;9.68;4.90;;;17.10;46.60;;;;;;4947989;28;20051;-55
2022/01/27 03:31:17;;;;;;;11.50;5.28;;;17.10;46.80;;;;;;4947578;28;20051;-59
2022/01/27 03:33:44;;;;;;;8.98;5.35;;;17.10;46.80;;;;;;4947001;28;20051;-58
2022/01/27 03:36:14;;;;;;;9.02;5.60;;;17.10;46.80;;;;;;4947307;28;20039;-58
2022/01/27 03:38:42;;;;;;;6.95;4.40;;;17.10;46.90;;;;;;4947060;28;20039;-58
2022/01/27 03:41:10;;;;;;;6.18;4.50;;;17.10;46.90;;;;;;4947362;28;27653;-58
2022/01/27 03:43:39;;;;;;;11.40;5.32;;;17.20;47.00;;;;;;4947806;28;20150;-57
2022/01/27 03:46:08;;;;;;;9.27;4.68;;;17.20;47.00;;;;;;4946578;28;20524;-57
2022/01/27 03:48:35;;;;;;;7.50;5.13;;;17.20;47.00;;;;;;4946941;28;20058;-57
2022/01/27 03:51:02;;;;;;;9.43;6.00;;;17.20;47.10;;;;;;4947016;28;20413;-58
2022/01/27 03:53:30;;;;;;;8.70;5.75;;;17.20;47.10;;;;;;4947242;28;20114;-59
2022/01/27 03:55:58;;;;;;;9.93;4.70;;;17.20;47.20;;;;;;4947083;28;20040;-58
2022/01/27 03:58:25;;;;;;;10.18;5.88;;;17.20;47.80;;;;;;4948902;29;20126;-60
2022/01/27 04:00:52;;;;;;;7.13;4.43;;;17.30;47.20;;;;;;4946548;28;20408;-59
2022/01/27 04:03:22;;;;;;;7.88;4.63;;;17.30;47.20;;;;;;4929567;29;20077;-58
2022/01/27 04:05:51;;;;;;;9.25;5.10;;;17.30;47.10;;;;;;4946524;28;20121;-59
2022/01/27 04:08:19;;;;;;;10.63;4.88;;;17.20;47.10;;;;;;4946898;28;20051;-56
2022/01/27 04:10:47;;;;;;;8.02;5.03;;;17.30;47.10;;;;;;4944557;28;20430;-56
2022/01/27 04:13:14;;;;;;;6.93;4.93;;;17.30;47.00;;;;;;4948319;28;20039;-57
2022/01/27 04:15:43;;;;;;;8.60;5.28;;;17.30;47.00;;;;;;4946367;28;20456;-58
2022/01/27 04:18:11;;;;;;;7.53;5.22;;;17.30;46.90;;;;;;4946468;28;20039;-55
2022/01/27 04:20:40;;;;;;;9.90;5.18;;;17.30;46.80;;;;;;4947105;28;20039;-57
2022/01/27 04:23:08;;;;;;;6.57;4.65;;;17.30;46.80;;;;;;4946858;28;20814;-59
2022/01/27 04:25:37;;;;;;;8.30;4.57;;;17.30;46.80;;;;;;4948013;29;20130;-58
2022/01/27 04:28:08;;;;;;;7.57;4.38;;;17.30;46.70;;;;;;4947530;28;20062;-59
2022/01/27 04:30:35;;;;;;;7.25;4.53;;;17.30;46.70;;;;;;4946302;28;20047;-59
2022/01/27 04:33:04;;;;;;;7.60;5.15;;;17.30;46.70;;;;;;4946336;28;20035;-59
2022/01/27 04:35:35;;;;;;;9.50;5.38;;;17.30;46.70;;;;;;4929250;29;20043;-59
2022/01/27 04:38:17;;;;;;;8.77;4.95;;;17.30;46.60;;;;;;4946842;28;20449;-58
2022/01/27 04:40:53;;;;;;;9.15;5.63;;;17.30;46.70;;;;;;4946930;28;20043;-58
2022/01/27 04:43:27;;;;;;;6.05;4.45;;;17.30;46.60;;;;;;4947256;29;20050;-57
2022/01/27 04:46:02;;;;;;;9.07;4.82;;;17.30;47.20;;;;;;4945929;28;20061;-59
2022/01/27 04:48:35;;;;;;;7.80;5.43;;;17.30;46.60;;;;;;4946395;28;20131;-57
2022/01/27 04:51:06;;;;;;;8.32;4.45;;;17.30;46.60;;;;;;4946113;28;20579;-56
2022/01/27 04:53:40;;;;;;;8.13;4.05;;;17.30;46.60;;;;;;4946612;28;20423;-57
2022/01/27 04:56:11;;;;;;;9.45;5.05;;;17.30;46.70;;;;;;4942930;28;20043;-53
2022/01/27 04:58:38;;;;;;;7.05;4.45;;;17.40;46.70;;;;;;4950305;28;20051;-56
2022/01/27 05:01:06;;;;;;;9.75;4.82;;;17.30;47.30;;;;;;4950996;28;20059;-55
2022/01/27 05:03:39;;;;;;;7.03;4.28;;;17.40;46.80;;;;;;4949832;28;20082;-56
2022/01/27 05:06:06;;;;;;;7.63;5.68;;;17.40;46.80;;;;;;4949662;28;20492;-54
2022/01/27 05:08:35;;;;;;;8.52;4.78;;;17.40;46.70;;;;;;4949817;28;20786;-55
2022/01/27 05:11:07;;;;;;;5.82;4.07;;;17.40;46.70;;;;;;4950139;28;20047;-57
2022/01/27 05:13:40;;;;;;;8.23;5.18;;;17.30;46.60;;;;;;4951502;28;20051;-55
2022/01/27 05:16:07;;;;;;;5.50;3.55;;;17.40;46.70;;;;;;4948752;28;20412;-56
2022/01/27 05:18:35;;;;;;;5.50;4.15;;;17.30;46.60;;;;;;4949548;28;20043;-57
2022/01/27 05:21:03;;;;;;;6.07;4.80;;;17.30;46.60;;;;;;4949441;28;20083;-56
2022/01/27 05:23:30;;;;;;;8.57;4.45;;;17.30;46.50;;;;;;4949714;28;20043;-57
2022/01/27 05:25:58;;;;;;;8.48;4.90;;;17.40;46.60;;;;;;4949273;28;20070;-55
2022/01/27 05:28:25;;;;;;;8.02;4.45;;;17.30;47.10;;;;;;4950892;29;20043;-58
2022/01/27 05:30:52;;;;;;;8.80;4.22;;;17.30;46.50;;;;;;4949470;28;20047;-58
2022/01/27 05:33:20;;;;;;;6.57;4.47;;;17.40;46.50;;;;;;4949644;28;20044;-58
2022/01/27 05:35:47;;;;;;;5.25;3.80;;;17.30;46.40;;;;;;4949183;28;20069;-55
2022/01/27 05:38:15;;;;;;;8.30;5.05;;;17.40;46.40;;;;;;4949133;28;20055;-57
2022/01/27 05:40:44;;;;;;;8.23;4.40;;;17.40;46.40;;;;;;4949743;28;20054;-57
2022/01/27 05:43:13;;;;;;;6.85;4.90;;;17.40;46.40;;;;;;4950468;28;20079;-57
2022/01/27 05:45:40;;;;;;;8.80;4.35;;;17.30;46.30;;;;;;4948940;28;20050;-57
2022/01/27 05:48:07;;;;;;;7.05;5.28;;;17.40;46.40;;;;;;4949365;28;20050;-55
2022/01/27 05:50:34;;;;;;;9.38;3.85;;;17.30;46.30;;;;;;4949156;28;20074;-57
2022/01/27 05:53:02;;;;;;;6.45;4.40;;;17.30;46.30;;;;;;4949713;28;20692;-57
2022/01/27 05:55:29;;;;;;;8.05;4.65;;;17.30;46.90;;;;;;4950984;29;20146;-56
2022/01/27 05:57:56;;;;;;;5.88;3.80;;;17.30;46.30;;;;;;4948726;28;20046;-54
2022/01/27 06:00:24;;;;;;;7.18;4.60;;;17.30;46.80;;;;;;4948817;28;20044;-52
2022/01/27 06:02:52;;;;;;;4.78;3.50;;;17.30;46.20;;;;;;4948900;28;20035;-57
2022/01/27 06:05:19;;;;;;;5.65;4.05;;;17.30;46.20;;;;;;4949288;28;20130;-57
2022/01/27 06:07:46;;;;;;;7.28;3.05;;;17.30;46.20;;;;;;4948690;28;20138;-56
2022/01/27 06:10:13;;;;;;;5.63;3.90;;;17.30;46.20;;;;;;4950565;28;20595;-58
2022/01/27 06:12:48;;;;;;;4.60;4.05;;;17.30;46.20;;;;;;4948671;28;20043;-58
2022/01/27 06:15:15;;;;;;;4.70;3.58;;;17.30;46.20;;;;;;4948405;28;20832;-56
2022/01/27 06:17:44;;;;;;;4.47;3.70;;;17.30;46.20;;;;;;4948614;28;20039;-57
2022/01/27 06:20:12;;;;;;;6.72;4.72;;;17.30;46.10;;;;;;4948676;28;20134;-57
2022/01/27 06:22:39;;;;;;;7.40;4.10;;;17.30;46.10;;;;;;4949634;28;20043;-57
2022/01/27 06:25:08;;;;;;;7.05;4.75;;;17.30;46.10;;;;;;4949858;28;20161;-57
2022/01/27 06:27:36;;;;;;;5.13;3.08;;;17.30;46.00;;;;;;4946907;28;20043;-57
2022/01/27 06:30:05;;;;;;;6.15;4.57;;;17.30;46.00;;;;;;4943631;28;20072;-56
2022/01/27 06:32:32;;;;;;;7.75;3.90;;;17.30;46.00;;;;;;4945908;28;20039;-53
2022/01/27 06:35:03;;;;;;;6.25;3.38;;;17.30;46.00;;;;;;4948341;28;20045;-57
2022/01/27 06:37:31;;;;;;;8.15;4.32;;;17.30;45.90;;;;;;4950154;29;20603;-53
2022/01/27 06:39:58;;;;;;;4.72;3.58;;;17.30;45.90;;;;;;4948139;28;20070;-57
2022/01/27 06:42:25;;;;;;;5.57;3.67;;;17.30;45.90;;;;;;4947692;28;20512;-57
2022/01/27 06:44:52;;;;;;;7.00;3.67;;;17.30;45.90;;;;;;4947874;28;20101;-57
2022/01/27 06:47:20;;;;;;;7.40;3.50;;;17.30;45.90;;;;;;4948099;28;20039;-58
2022/01/27 06:49:47;;;;;;;6.03;3.13;;;17.30;45.90;;;;;;4948329;28;20047;-57
2022/01/27 06:52:16;;;;;;;6.22;3.47;;;17.30;45.90;;;;;;4946682;28;20059;-58
2022/01/27 06:54:43;;;;;;;6.05;3.40;;;17.30;45.90;;;;;;4947761;28;20121;-56
2022/01/27 06:57:10;;;;;;;4.28;3.40;;;17.30;45.90;;;;;;4947892;28;20500;-57
2022/01/27 06:59:37;;;;;;;6.00;3.10;;;17.20;45.80;;;;;;4946491;28;20563;-57
2022/01/27 07:02:05;;;;;;;5.30;3.63;;;17.20;45.80;;;;;;4945603;28;20050;-57
2022/01/27 07:04:32;;;;;;;6.40;3.53;;;17.30;45.90;;;;;;4947483;29;20114;-55
2022/01/27 07:07:00;;;;;;;5.13;3.25;;;17.20;45.80;;;;;;4947390;28;20420;-57
2022/01/27 07:09:28;;;;;;;4.55;3.58;;;17.20;45.80;;;;;;4947087;28;20059;-56
2022/01/27 07:11:56;;;;;;;4.65;3.55;;;17.20;45.80;;;;;;4947588;28;20050;-58
2022/01/27 07:14:23;;;;;;;4.85;3.47;;;17.20;45.80;;;;;;4947785;28;20637;-56
2022/01/27 07:16:50;;;;;;;3.30;2.50;;;17.20;45.80;;;;;;4947374;28;20594;-56
2022/01/27 07:19:18;;;;;;;4.32;3.55;;;17.20;45.80;;;;;;4947230;28;20070;-57
2022/01/27 07:21:45;;;;;;;3.88;3.15;;;17.20;45.90;;;;;;4947291;28;20534;-57
2022/01/27 07:24:12;;;;;;;7.32;2.97;;;17.20;45.90;;;;;;4934007;28;20133;-57
2022/01/27 07:26:41;;;;;;;7.85;2.78;;;17.10;45.80;;;;;;4947160;28;20043;-57
2022/01/27 07:29:08;;;;;;;4.78;2.88;;;17.10;45.80;;;;;;4947231;28;20047;-58
2022/01/27 07:31:35;;;;;;;6.32;3.90;;;17.10;45.80;;;;;;4949252;29;20050;-55
2022/01/27 07:34:02;;;;;;;5.03;3.08;;;17.10;45.90;;;;;;4948124;28;20054;-57
2022/01/27 07:36:31;;;;;;;7.25;2.70;;;17.10;45.80;;;;;;4947023;28;20035;-59
2022/01/27 07:38:59;;;;;;;4.07;3.25;;;17.10;45.80;;;;;;4947302;28;20047;-58
2022/01/27 07:41:27;;;;;;;5.22;3.25;;;17.10;45.80;;;;;;4946104;28;20059;-56
2022/01/27 07:43:55;;;;;;;6.00;2.75;;;17.10;45.80;;;;;;4947182;28;20142;-57
2022/01/27 07:46:22;;;;;;;6.53;3.00;;;17.10;45.80;;;;;;4947171;28;20058;-55
2022/01/27 07:48:49;;;;;;;4.85;3.70;;;17.10;45.80;;;;;;4946886;28;20051;-62
2022/01/27 07:51:17;;;;;;;5.05;3.42;;;17.10;45.70;;;;;;4944021;28;20045;-53
2022/01/27 07:53:44;;;;;;;6.28;3.38;;;17.10;45.70;;;;;;4946869;28;20035;-57
2022/01/27 07:56:11;;;;;;;2.92;2.60;;;17.10;45.70;;;;;;4947277;28;20097;-56
2022/01/27 07:58:43;;;;;;;4.72;3.83;;;17.10;45.70;;;;;;4947822;28;20122;-58
2022/01/27 08:01:12;;;;;;;3.30;2.30;;;17.10;45.70;;;;;;4947469;28;20051;-58
2022/01/27 08:03:40;;;;;;;4.80;3.15;;;17.10;45.70;;;;;;4946424;28;20130;-58
2022/01/27 08:06:08;;;;;;;5.07;3.75;;;17.10;45.70;;;;;;4946640;28;20047;-56
2022/01/27 08:08:36;;;;;;;4.95;2.95;;;17.10;45.70;;;;;;4946407;28;20055;-55
2022/01/27 08:11:03;;;;;;;3.90;3.15;;;17.10;45.70;;;;;;4946852;28;20058;-57
2022/01/27 08:13:31;;;;;;;6.80;3.60;;;17.10;45.60;;;;;;4948663;28;20039;-56
2022/01/27 08:15:59;;;;;;;3.22;2.95;;;17.10;45.70;;;;;;4946644;28;20047;-58
2022/01/27 08:18:27;;;;;;;4.70;3.03;;;17.10;45.60;;;;;;4946327;28;20051;-56
2022/01/27 08:20:54;;;;;;;5.95;2.75;;;17.10;45.70;;;;;;4946491;28;20516;-55
2022/01/27 08:23:22;;;;;;;5.10;2.65;;;17.10;45.60;;;;;;4946446;28;20043;-56
2022/01/27 08:25:59;;;;;;;4.05;3.28;;;17.10;45.70;;;;;;4946718;28;20679;-55
2022/01/27 08:28:30;;;;;;;4.50;2.95;;;17.10;45.60;;;;;;4948222;29;20055;-57
2022/01/27 08:30:59;;;;;;;9.27;3.20;;;17.10;45.80;;;;;;4948110;28;20040;-58
2022/01/27 08:33:29;;;;;;;5.80;2.83;;;17.10;46.00;;;;;;4950273;28;20051;-56
2022/01/27 08:35:58;;;;;;;9.63;3.25;;;17.10;46.10;;;;;;4950533;28;20476;-52
2022/01/27 08:38:26;;;;;;;6.70;3.10;;;17.10;46.20;;;;;;4950099;28;20840;-53
2022/01/27 08:40:53;;;;;;;5.57;3.33;;;17.10;46.30;;;;;;4949849;28;20051;-58
2022/01/27 08:43:21;;;;;;;6.63;3.72;;;17.20;46.40;;;;;;4952409;29;20054;-55
2022/01/27 08:45:50;;;;;;;6.47;3.25;;;17.20;46.40;;;;;;4950349;28;20047;-59
2022/01/27 08:48:20;;;;;;;5.40;3.30;;;17.20;46.40;;;;;;4949786;28;20054;-56
2022/01/27 08:50:53;;;;;;;5.20;2.65;;;17.20;46.40;;;;;;4946790;28;20461;-51
2022/01/27 08:53:22;;;;;;;3.80;2.85;;;17.20;46.60;;;;;;4944217;28;20497;-57
2022/01/27 08:55:50;;;;;;;7.15;4.03;;;17.20;46.60;;;;;;4948675;28;20044;-57
2022/01/27 08:58:17;;;;;;;5.63;3.65;;;17.20;46.70;;;;;;4948875;29;20051;-45
2022/01/27 09:00:44;;;;;;;4.55;3.63;;;17.20;46.70;;;;;;4948028;28;20047;-54
2022/01/27 09:03:11;;;;;;;8.70;3.38;;;17.30;47.00;;;;;;4943470;28;20046;-50
2022/01/27 09:05:38;;;;;;;8.02;3.67;;;17.30;47.10;;;;;;4943354;28;20071;-48
2022/01/27 09:08:07;;;;;;;6.40;2.70;;;17.30;47.10;;;;;;4950205;28;20055;-48
2022/01/27 09:10:35;;;;;;;7.50;4.10;;;17.30;47.10;;;;;;4948147;29;20078;-50
2022/01/27 09:13:04;;;;;;;9.02;3.42;;;17.30;47.10;;;;;;4950671;28;20047;-47
2022/01/27 09:15:32;;;;;;;6.30;2.78;;;17.30;47.10;;;;;;4944617;28;20043;-50
2022/01/27 09:18:00;;;;;;;4.45;2.50;;;17.30;47.00;;;;;;4943415;28;20048;-53
2022/01/27 09:20:28;;;;;;;6.95;2.97;;;17.30;47.00;;;;;;4943615;28;20416;-51
2022/01/27 09:22:57;;;;;;;8.38;3.00;;;17.30;47.00;;;;;;4948615;28;20102;-49
2022/01/27 09:25:31;;;;;;;4.38;2.72;;;17.40;47.00;;;;;;4951572;29;20058;-51
2022/01/27 09:27:59;;;;;;;7.00;3.00;;;17.40;46.90;;;;;;4949441;28;20783;-52
2022/01/27 09:30:26;;;;;;;5.85;2.88;;;17.40;46.90;;;;;;4949489;28;20079;-53
2022/01/27 09:32:55;;;;;;;6.03;3.30;;;17.40;46.80;;;;;;4949321;28;20219;-51
2022/01/27 09:35:23;;;;;;;7.30;2.88;;;17.40;46.80;;;;;;4948866;28;20512;-43
2022/01/27 09:37:51;;;;;;;8.05;3.90;;;17.40;46.70;;;;;;4949527;28;20047;-59
2022/01/27 09:40:18;;;;;;;6.55;3.53;;;17.50;46.90;;;;;;4949464;28;20047;-59
2022/01/27 09:42:50;;;;;;;5.53;2.95;;;17.50;47.00;;;;;;4948646;28;20106;-59
2022/01/27 09:45:19;;;;;;;4.80;2.78;;;17.60;47.00;;;;;;4949207;28;20113;-44
2022/01/27 09:47:54;;;;;;;7.70;2.75;;;17.60;47.00;;;;;;4949337;28;20051;-61
2022/01/27 09:50:46;;;;;;;6.47;2.53;;;17.70;47.00;;;;;;4948352;28;20047;-60
2022/01/27 09:53:14;;;;;;;3.95;2.80;;;17.70;47.00;;;;;;4948705;28;20043;-64
2022/01/27 09:55:42;;;;;;;5.15;3.17;;;17.70;46.90;;;;;;4949819;28;20071;-66
2022/01/27 09:58:11;;;;;;;8.27;3.42;;;17.80;46.90;;;;;;4949970;28;20051;-60
2022/01/27 10:00:38;;;;;;;5.97;3.05;;;17.80;46.80;;;;;;4947029;28;20049;-62
2022/01/27 10:03:08;;;;;;;5.50;3.20;;;17.90;46.80;;;;;;4948915;28;20035;-61
2022/01/27 10:05:37;;;;;;;4.55;3.15;;;17.90;46.70;;;;;;4948873;28;20122;-60
2022/01/27 10:08:09;;;;;;;6.50;3.03;;;17.90;46.50;;;;;;4949044;28;20059;-56
2022/01/27 10:10:39;;;;;;;5.22;3.30;;;18.00;46.60;;;;;;4950515;29;20051;-55
2022/01/27 10:13:08;;;;;;;4.43;2.45;;;18.00;46.50;;;;;;4949758;28;20047;-54
2022/01/27 10:15:39;;;;;;;4.20;3.42;;;18.00;46.40;;;;;;4949187;28;20039;-45
2022/01/27 10:18:11;;;;;;;5.15;3.00;;;18.10;46.40;;;;;;4948556;28;20127;-58
2022/01/27 10:20:40;;;;;;;3.42;2.78;;;18.10;46.30;;;;;;4948914;28;20110;-59
2022/01/27 10:23:19;;;;;;;4.65;2.70;;;18.10;46.30;;;;;;4948167;28;20063;-58
2022/01/27 10:25:51;;;;;;;2.92;2.03;;;18.20;46.20;;;;;;4949034;28;20559;-55
2022/01/27 10:28:35;;;;;;;3.45;2.67;;;18.20;46.20;;;;;;4948653;29;20035;-57
2022/01/27 10:31:07;;;;;;;3.90;2.83;;;18.20;46.10;;;;;;4949513;28;20050;-58
2022/01/27 10:33:50;;;;;;;2.65;2.45;;;18.20;46.00;;;;;;4944697;28;20663;-55
2022/01/27 10:36:19;;;;;;;4.13;3.03;;;18.30;45.90;;;;;;4943791;28;20503;-46
2022/01/27 10:38:49;;;;;;;5.70;3.22;;;18.30;45.90;;;;;;4948359;28;20047;-47
2022/01/27 10:41:17;;;;;;;4.72;3.20;;;18.30;45.90;;;;;;4947887;28;20051;-47
2022/01/27 10:43:45;;;;;;;4.35;2.55;;;18.30;45.80;;;;;;4948493;28;20079;-48
2022/01/27 10:46:22;;;;;;;3.15;2.30;;;18.40;45.80;;;;;;4949606;28;20061;-55
2022/01/27 10:48:55;;;;;;;4.35;3.38;;;18.40;45.70;;;;;;4947500;28;20053;-55
2022/01/27 10:51:26;;;;;;;8.35;3.03;;;18.40;45.80;;;;;;4945037;28;20061;-50
2022/01/27 10:54:00;;;;;;;3.28;2.13;;;18.40;46.20;;;;;;4947724;28;20629;-57
2022/01/27 10:56:29;;;;;;;2.28;2.00;;;18.40;45.60;;;;;;4947983;28;20730;-56
2022/01/27 10:58:59;;;;;;;3.25;2.95;;;18.40;45.40;;;;;;4947818;28;20043;-57
2022/01/27 11:01:33;;;;;;;4.45;2.58;;;18.40;45.30;;;;;;4949389;29;20130;-56
2022/01/27 11:04:03;;;;;;;5.95;3.05;;;18.40;45.20;;;;;;4947682;28;20045;-55
2022/01/27 11:06:32;;;;;;;5.55;2.67;;;18.40;45.20;;;;;;4947521;28;20102;-56
2022/01/27 11:09:05;;;;;;;4.30;2.95;;;18.40;45.20;;;;;;4947428;28;20067;-56
2022/01/27 11:11:35;;;;;;;5.40;3.45;;;18.40;45.20;;;;;;4947822;28;20449;-51
2022/01/27 11:14:04;;;;;;;5.45;3.50;;;18.40;45.10;;;;;;4946811;28;20106;-51
2022/01/27 11:16:36;;;;;;;5.53;2.55;;;18.40;45.10;;;;;;4949062;29;20096;-54
2022/01/27 11:19:23;;;;;;;4.32;2.72;;;18.40;45.10;;;;;;4948328;28;20091;-55
2022/01/27 11:21:58;;;;;;;2.80;2.17;;;18.40;45.00;;;;;;4947129;28;20134;-55
2022/01/27 11:24:33;;;;;;;4.38;2.55;;;18.30;44.90;;;;;;4942680;28;20075;-57
2022/01/27 11:27:05;;;;;;;3.07;2.77;;;18.30;44.90;;;;;;4943131;28;20047;-59
2022/01/27 11:29:41;;;;;;;5.40;2.72;;;18.40;45.00;;;;;;4946893;28;20122;-54
2022/01/27 11:32:33;;;;;;;3.05;2.10;;;18.30;44.90;;;;;;4946750;28;20043;-53
2022/01/27 11:35:01;;;;;;;3.28;2.83;;;18.40;44.90;;;;;;4947519;28;20049;-55
2022/01/27 11:37:33;;;;;;;3.22;2.80;;;18.30;44.90;;;;;;4947541;29;20043;-53
2022/01/27 11:40:07;;;;;;;3.47;2.40;;;18.30;44.80;;;;;;4947052;28;20042;-54
2022/01/27 11:43:01;;;;;;;4.55;2.85;;;18.30;44.90;;;;;;4942893;28;20039;-55
2022/01/27 11:45:33;;;;;;;6.20;3.78;;;18.30;44.80;;;;;;4947018;28;20043;-52
2022/01/27 11:48:08;;;;;;;3.53;2.65;;;18.30;44.90;;;;;;4944839;28;20046;-52
2022/01/27 11:50:48;;;;;;;6.82;4.10;;;18.30;44.90;;;;;;4934505;28;20039;-57
2022/01/27 11:53:35;;;;;;;8.75;4.63;;;18.30;44.40;;;;;;4938555;28;20134;-55
2022/01/27 11:56:07;;;;;;;7.32;4.43;;;18.40;45.10;;;;;;4940119;28;20069;-49
2022/01/27 11:58:44;;;;;;;5.53;3.95;;;18.40;44.40;;;;;;4942211;28;20043;-52
2022/01/27 12:01:15;;;;;;;8.98;4.82;;;18.50;44.40;;;;;;4939816;29;20046;-50
2022/01/27 12:04:21;;;;;;;11.57;5.35;;;18.50;44.20;;;;;;4940425;28;20051;-50
2022/01/27 12:07:07;;;;;;;7.22;3.47;;;18.70;43.90;;;;;;4944542;28;20079;-51
2022/01/27 12:09:38;;;;;;;4.40;2.92;;;18.80;44.20;;;;;;4946776;28;20074;-47
2022/01/27 12:12:13;;;;;;;8.95;3.50;;;18.90;44.20;;;;;;4940148;28;20086;-52
2022/01/27 12:15:07;;;;;;;7.93;3.67;;;18.90;44.10;;;;;;4944355;28;20043;-52
2022/01/27 12:17:35;;;;;;;7.95;3.75;;;18.90;45.50;;;;;;4945329;28;20135;-51
2022/01/27 12:20:08;;;;;;;17.50;5.72;;;18.90;45.30;;;;;;4946725;28;20044;-51
2022/01/27 12:23:01;;;;;;;12.70;4.85;;;18.90;48.00;;;;;;4947927;28;20493;-47
2022/01/27 12:25:45;;;;;;;12.02;4.35;;;19.00;49.30;;;;;;4945778;29;20047;-51
2022/01/27 12:28:12;;;;;;;6.85;4.28;;;19.00;49.60;;;;;;4946993;28;20500;-50
2022/01/27 12:30:40;;;;;;;14.45;2.92;;;19.00;50.20;;;;;;4946283;28;20043;-46
2022/01/27 12:33:07;;;;;;;6.53;3.97;;;19.00;50.50;;;;;;4946202;28;20039;-53
2022/01/27 12:35:37;;;;;;;12.45;3.30;;;19.00;50.50;;;;;;4945940;28;20066;-51
2022/01/27 12:38:04;;;;;;;12.88;4.60;;;19.00;50.50;;;;;;4946746;28;20050;-47
2022/01/27 12:40:33;;;;;;;9.27;3.97;;;19.00;50.40;;;;;;4948291;29;20497;-54
2022/01/27 12:43:03;;;;;;;9.15;3.70;;;19.00;50.50;;;;;;4946528;28;20043;-52
2022/01/27 12:45:32;;;;;;;9.23;3.90;;;19.00;50.60;;;;;;4946867;28;20496;-50
2022/01/27 12:48:04;;;;;;;7.20;4.13;;;19.00;50.60;;;;;;4946113;28;20047;-51
2022/01/27 12:50:31;;;;;;;7.00;4.53;;;19.00;50.60;;;;;;4945366;28;20058;-49
2022/01/27 12:53:03;;;;;;;9.30;3.63;;;19.00;50.60;;;;;;4946339;28;20111;-47
2022/01/27 12:55:33;;;;;;;6.28;3.47;;;19.00;50.70;;;;;;4948261;28;20483;-48
2022/01/27 12:58:02;;;;;;;10.05;3.75;;;19.00;50.70;;;;;;4945875;28;20043;-48
2022/01/27 13:00:36;;;;;;;6.45;3.40;;;18.90;50.60;;;;;;4946080;28;20054;-46
2022/01/27 13:03:04;;;;;;;6.22;3.22;;;19.00;50.60;;;;;;4945990;28;20126;-49
2022/01/27 13:05:35;;;;;;;5.30;3.47;;;18.90;50.60;;;;;;4946454;28;20039;-46
2022/01/27 13:08:05;;;;;;;7.13;3.83;;;18.90;50.60;;;;;;4945913;28;20043;-48
2022/01/27 13:10:33;;;;;;;5.60;3.65;;;18.90;50.50;;;;;;4948089;29;20094;-48
2022/01/27 13:13:07;;;;;;;6.38;3.08;;;18.90;50.40;;;;;;4945870;28;20040;-53
2022/01/27 13:15:35;;;;;;;5.43;3.58;;;18.90;50.40;;;;;;4944195;28;20062;-51
2022/01/27 13:18:12;;;;;;;8.00;4.10;;;19.00;50.40;;;;;;4947636;28;20531;-50
2022/01/27 13:20:43;;;;;;;5.93;3.30;;;19.00;50.40;;;;;;4950035;28;20217;-47
2022/01/27 13:23:16;;;;;;;7.32;4.28;;;18.90;50.30;;;;;;4947627;28;20118;-51